Time;durP1;ratioP1;P1;durP2;ratioP2;P2;SDS_P1;SDS_P2;PMS_P1;PMS_P2;Temp;Humidity;BMP_temperature;BMP_pressure;BME280_temperature;BME280_humidity;BME280_pressure;Samples;Min_cycle;Max_cycle;Signal;HPM_P1;HPM_P2
2022/09/28 00:00:19;;;;;;;7.80;3.85;;;17.60;76.80;;;;;;5054659;28;20386;-69
2022/09/28 00:02:46;;;;;;;10.00;4.47;;;17.60;76.80;;;;;;5054142;28;20425;-69
2022/09/28 00:05:12;;;;;;;8.00;3.90;;;17.60;76.80;;;;;;5051742;28;20487;-69
2022/09/28 00:07:39;;;;;;;5.82;3.45;;;17.60;76.80;;;;;;5049555;28;20467;-68
2022/09/28 00:10:06;;;;;;;13.65;4.70;;;17.60;76.80;;;;;;5053938;28;20160;-70
2022/09/28 00:12:33;;;;;;;6.75;5.05;;;17.60;76.70;;;;;;5058148;28;20029;-69
2022/09/28 00:14:59;;;;;;;8.07;4.07;;;17.50;76.80;;;;;;5049816;28;20021;-69
2022/09/28 00:17:26;;;;;;;15.10;4.47;;;17.50;76.90;;;;;;5049147;28;20389;-69
2022/09/28 00:19:52;;;;;;;14.82;4.30;;;17.50;76.90;;;;;;5053215;28;20041;-69
2022/09/28 00:22:19;;;;;;;8.18;4.00;;;17.50;76.90;;;;;;5055196;28;20020;-69
2022/09/28 00:24:46;;;;;;;9.15;4.38;;;17.50;76.70;;;;;;5051503;28;20106;-70
2022/09/28 00:27:12;;;;;;;11.43;4.10;;;17.50;76.70;;;;;;5050167;28;20017;-69
2022/09/28 00:29:39;;;;;;;11.00;5.57;;;17.50;76.60;;;;;;5053829;28;20499;-69
2022/09/28 00:32:12;;;;;;;6.28;4.53;;;17.50;76.40;;;;;;5046026;28;20447;-69
2022/09/28 00:34:47;;;;;;;6.88;4.22;;;17.40;76.40;;;;;;5053018;28;20162;-70
2022/09/28 00:37:14;;;;;;;13.48;4.97;;;17.40;76.40;;;;;;5051072;28;20388;-70
2022/09/28 00:39:42;;;;;;;7.60;4.90;;;17.40;76.30;;;;;;5054211;28;20111;-69
2022/09/28 00:42:20;;;;;;;12.90;6.00;;;17.40;76.30;;;;;;5049861;28;20080;-71
2022/09/28 00:44:56;;;;;;;8.05;3.40;;;17.40;76.20;;;;;;5048405;28;20028;-69
2022/09/28 00:47:37;;;;;;;7.93;3.88;;;17.30;76.40;;;;;;5056879;28;20021;-70
2022/09/28 00:50:32;;;;;;;14.80;4.95;;;17.30;76.50;;;;;;5052221;28;20036;-69
2022/09/28 00:53:09;;;;;;;13.18;5.82;;;17.30;76.90;;;;;;5052826;28;20036;-70
2022/09/28 00:55:50;;;;;;;11.05;4.00;;;17.30;76.90;;;;;;5047907;28;20059;-69
2022/09/28 00:58:22;;;;;;;15.10;5.63;;;17.30;76.90;;;;;;5052130;28;20090;-70
2022/09/28 01:00:49;;;;;;;11.73;5.72;;;17.30;76.80;;;;;;5052734;28;20025;-70
2022/09/28 01:03:16;;;;;;;18.60;6.63;;;17.30;76.70;;;;;;5050643;28;20017;-69
2022/09/28 01:05:44;;;;;;;17.05;7.82;;;17.20;76.60;;;;;;5051873;28;20025;-69
2022/09/28 01:08:13;;;;;;;17.75;7.45;;;17.20;76.40;;;;;;5052500;28;20100;-71
2022/09/28 01:10:42;;;;;;;14.15;7.03;;;17.30;76.30;;;;;;5048307;28;20926;-72
2022/09/28 01:13:10;;;;;;;13.13;7.47;;;17.20;75.90;;;;;;5052790;28;20093;-71
2022/09/28 01:15:55;;;;;;;14.75;7.85;;;17.20;76.00;;;;;;5053629;28;20103;-68
2022/09/28 01:18:47;;;;;;;17.73;6.85;;;17.10;76.00;;;;;;5055385;28;20032;-69
2022/09/28 01:21:19;;;;;;;22.08;8.48;;;17.10;75.90;;;;;;5049659;28;20037;-70
2022/09/28 01:24:09;;;;;;;11.48;6.70;;;17.10;75.60;;;;;;5049341;28;20021;-70
2022/09/28 01:26:53;;;;;;;13.52;6.45;;;17.10;75.60;;;;;;5049715;28;20033;-69
2022/09/28 01:29:40;;;;;;;13.95;6.40;;;17.10;75.60;;;;;;5045618;28;20025;-70
2022/09/28 01:32:25;;;;;;;10.02;7.10;;;17.10;75.60;;;;;;5052592;28;20136;-69
2022/09/28 01:35:01;;;;;;;9.98;5.20;;;17.10;75.60;;;;;;5052538;28;20379;-69
2022/09/28 01:37:43;;;;;;;15.52;7.65;;;17.00;76.10;;;;;;5052979;28;20392;-69
2022/09/28 01:40:12;;;;;;;18.83;7.05;;;17.10;75.70;;;;;;5049863;28;20468;-68
2022/09/28 01:42:42;;;;;;;18.55;7.93;;;17.10;75.70;;;;;;5045744;28;20043;-69
2022/09/28 01:45:22;;;;;;;12.07;6.32;;;17.00;75.80;;;;;;5049331;28;20060;-69
2022/09/28 01:47:50;;;;;;;6.63;3.90;;;17.00;75.80;;;;;;5052933;28;20044;-69
2022/09/28 01:50:21;;;;;;;8.50;3.30;;;17.00;75.80;;;;;;5050285;28;20060;-71
2022/09/28 01:53:07;;;;;;;11.50;2.50;;;17.00;76.00;;;;;;5051213;28;20112;-70
2022/09/28 01:55:35;;;;;;;;;;;16.90;76.50;;;;;;5050155;28;20024;-69
2022/09/28 01:58:06;;;;;;;12.02;2.03;;;16.90;77.10;;;;;;5051407;28;20297;-71
2022/09/28 02:00:35;;;;;;;9.60;2.22;;;17.00;77.70;;;;;;5051719;28;20485;-69
2022/09/28 02:03:20;;;;;;;9.18;1.70;;;17.00;78.50;;;;;;5044229;28;20052;-69
2022/09/28 02:05:56;;;;;;;12.27;2.72;;;17.00;79.40;;;;;;5052540;28;20052;-70
2022/09/28 02:08:49;;;;;;;7.97;2.55;;;17.00;79.40;;;;;;5054370;28;20455;-70
2022/09/28 02:11:18;;;;;;;6.95;2.53;;;17.00;79.70;;;;;;5050106;28;20036;-70
2022/09/28 02:14:08;;;;;;;13.63;2.67;;;17.00;79.90;;;;;;5053036;28;20045;-69
2022/09/28 02:16:46;;;;;;;5.85;1.98;;;17.00;80.10;;;;;;5052755;28;20109;-69
2022/09/28 02:19:16;;;;;;;7.55;1.98;;;17.00;80.30;;;;;;5049207;28;20035;-69
2022/09/28 02:21:56;;;;;;;6.15;2.00;;;17.00;80.40;;;;;;5051894;28;20432;-70
2022/09/28 02:24:31;;;;;;;15.77;3.38;;;17.00;80.20;;;;;;5049993;28;20361;-69
2022/09/28 02:27:03;;;;;;;10.65;2.30;;;16.90;80.20;;;;;;5052685;28;20023;-70
2022/09/28 02:29:29;;;;;;;13.90;2.95;;;16.90;80.90;;;;;;5050917;28;21166;-70
2022/09/28 02:31:55;;;;;;;13.38;2.75;;;16.90;81.20;;;;;;5049554;28;20021;-69
2022/09/28 02:34:22;;;;;;;8.05;2.60;;;16.90;81.50;;;;;;5050116;28;20115;-70
2022/09/28 02:36:49;;;;;;;4.43;2.00;;;17.00;81.70;;;;;;5050903;28;20021;-70
2022/09/28 02:39:16;;;;;;;7.30;2.88;;;17.00;81.70;;;;;;5048685;28;20020;-69
2022/09/28 02:42:16;;;;;;;15.35;3.08;;;17.00;81.60;;;;;;5043631;28;20016;-70
2022/09/28 02:44:59;;;;;;;13.55;2.75;;;17.00;81.60;;;;;;5050455;28;20398;-70
2022/09/28 02:47:34;;;;;;;6.95;1.88;;;17.00;81.50;;;;;;5048037;28;20036;-70
2022/09/28 02:50:03;;;;;;;;;;;16.90;81.30;;;;;;5049520;28;20033;-69
2022/09/28 02:52:51;;;;;;;12.02;3.45;;;17.00;81.20;;;;;;5049794;28;20374;-69
2022/09/28 02:55:28;;;;;;;7.32;2.53;;;16.90;81.00;;;;;;5045045;28;20091;-70
2022/09/28 02:58:13;;;;;;;6.93;1.90;;;16.90;80.70;;;;;;5054948;28;20025;-69
2022/09/28 03:01:33;;;;;;;4.15;2.88;;;16.90;80.40;;;;;;5054794;28;20311;-69
2022/09/28 03:04:21;;;;;;;10.40;4.82;;;16.90;80.10;;;;;;5011345;28;20041;-70
2022/09/28 03:06:53;;;;;;;6.55;2.67;;;16.90;80.00;;;;;;5055017;28;20524;-71
2022/09/28 03:09:36;;;;;;;5.38;1.52;;;16.90;79.90;;;;;;5052433;28;20040;-70
2022/09/28 03:12:12;;;;;;;12.52;2.83;;;16.90;79.80;;;;;;5052801;28;20024;-69
2022/09/28 03:14:38;;;;;;;10.10;3.00;;;16.90;79.80;;;;;;5054107;28;20421;-69
2022/09/28 03:17:05;;;;;;;10.95;2.65;;;16.80;79.90;;;;;;5053062;28;20020;-70
2022/09/28 03:19:33;;;;;;;7.20;2.40;;;16.80;79.60;;;;;;5053266;28;20051;-71
2022/09/28 03:22:00;;;;;;;9.93;3.22;;;16.80;79.30;;;;;;5051199;28;20380;-69
2022/09/28 03:24:27;;;;;;;7.65;4.13;;;16.80;79.10;;;;;;5053009;28;20024;-70
2022/09/28 03:26:53;;;;;;;15.52;5.10;;;16.80;78.70;;;;;;5054068;28;20021;-70
2022/09/28 03:29:20;;;;;;;8.10;4.82;;;16.80;78.40;;;;;;5052799;28;20522;-70
2022/09/28 03:31:47;;;;;;;11.77;6.35;;;16.80;77.90;;;;;;5053072;28;20028;-70
2022/09/28 03:34:14;;;;;;;14.25;7.32;;;16.70;77.90;;;;;;5051898;28;20387;-69
2022/09/28 03:36:40;;;;;;;13.38;6.05;;;16.70;76.90;;;;;;5056001;28;20071;-69
2022/09/28 03:39:07;;;;;;;8.07;5.38;;;16.70;76.60;;;;;;5051754;28;20028;-69
2022/09/28 03:41:33;;;;;;;10.82;5.75;;;16.60;76.20;;;;;;5052265;28;20480;-70
2022/09/28 03:44:00;;;;;;;9.48;4.45;;;16.60;76.00;;;;;;5051886;28;20029;-69
2022/09/28 03:46:26;;;;;;;9.55;4.88;;;16.60;75.90;;;;;;5055420;28;20409;-69
2022/09/28 03:48:57;;;;;;;11.65;6.22;;;16.60;75.70;;;;;;5050466;28;20044;-68
2022/09/28 03:51:24;;;;;;;12.35;5.30;;;16.60;75.50;;;;;;5050477;28;20033;-71
2022/09/28 03:53:51;;;;;;;8.73;4.47;;;16.50;75.20;;;;;;5051142;28;20108;-70
2022/09/28 03:56:17;;;;;;;14.00;6.38;;;16.50;75.30;;;;;;5050013;28;20017;-71
2022/09/28 03:58:44;;;;;;;9.25;4.88;;;16.50;75.30;;;;;;5049820;28;20092;-70
2022/09/28 04:01:12;;;;;;;12.93;4.97;;;16.40;75.10;;;;;;5049435;28;20053;-70
2022/09/28 04:03:39;;;;;;;23.40;12.90;;;16.40;74.90;;;;;;5053074;28;20040;-69
2022/09/28 10:05:12;;;;;;;5.00;1.67;;;20.30;69.10;;;;;;6133092;22;3514029;-72
2022/09/28 10:07:55;;;;;;;7.88;1.77;;;20.40;67.40;;;;;;6272670;22;20513;-72
2022/09/28 10:10:29;;;;;;;6.50;1.55;;;20.50;67.30;;;;;;6271524;22;20323;-71
2022/09/28 10:12:56;;;;;;;2.70;1.00;;;20.50;67.30;;;;;;6272451;22;20391;-72
2022/09/28 10:15:25;;;;;;;1.73;1.42;;;20.60;66.80;;;;;;6271089;22;20045;-72
2022/09/28 10:17:54;;;;;;;3.90;1.40;;;20.70;66.40;;;;;;6272479;22;19999;-74
2022/09/28 10:20:22;;;;;;;4.97;2.13;;;20.70;65.90;;;;;;6272286;22;20007;-72
2022/09/28 10:22:50;;;;;;;4.38;1.50;;;20.80;65.20;;;;;;6271927;22;19995;-71
2022/09/28 10:25:17;;;;;;;4.47;1.05;;;20.80;64.70;;;;;;6272535;22;20002;-72
2022/09/28 10:27:51;;;;;;;2.60;1.23;;;20.80;64.60;;;;;;6271019;22;20018;-72
2022/09/28 10:30:23;;;;;;;4.60;1.00;;;20.90;64.30;;;;;;6272188;22;20334;-74
2022/09/28 10:32:53;;;;;;;3.20;1.17;;;20.90;64.20;;;;;;6270864;22;20003;-72
2022/09/28 10:35:24;;;;;;;7.53;1.38;;;21.00;64.10;;;;;;6272820;22;20447;-72
2022/09/28 10:38:16;;;;;;;1.85;1.23;;;21.10;65.10;;;;;;6272477;22;19999;-72
2022/09/28 10:40:50;;;;;;;4.25;1.40;;;21.10;64.50;;;;;;6271198;22;20358;-76
2022/09/28 10:43:27;;;;;;;2.97;1.00;;;21.20;64.60;;;;;;6272740;22;20065;-72
2022/09/28 10:46:04;;;;;;;2.72;0.70;;;21.20;64.00;;;;;;6271289;22;20004;-72
2022/09/28 10:48:53;;;;;;;3.92;0.88;;;21.30;62.40;;;;;;6272347;22;20039;-72
2022/09/28 10:51:21;;;;;;;1.83;0.70;;;21.30;61.30;;;;;;6272718;22;20483;-72
2022/09/28 10:54:01;;;;;;;2.92;1.10;;;21.30;61.10;;;;;;6271164;22;19996;-73
2022/09/28 10:56:34;;;;;;;1.40;0.70;;;21.40;60.70;;;;;;6274732;22;20093;-72
2022/09/28 10:59:01;;;;;;;2.20;0.63;;;21.40;59.90;;;;;;6273357;22;20023;-76
2022/09/28 11:01:33;;;;;;;3.13;0.80;;;21.40;59.40;;;;;;6273913;22;20000;-71
2022/09/28 11:04:06;;;;;;;2.38;0.90;;;21.50;59.60;;;;;;6273864;22;20039;-76
2022/09/28 11:06:38;;;;;;;1.67;0.75;;;21.60;59.20;;;;;;6273524;22;20031;-72
2022/09/28 11:09:26;;;;;;;2.03;0.95;;;21.60;58.60;;;;;;6246470;22;20414;-75
2022/09/28 11:11:53;;;;;;;7.47;1.08;;;21.60;58.50;;;;;;6273111;22;20006;-72
2022/09/28 11:14:42;;;;;;;1.92;0.70;;;21.80;59.20;;;;;;6274121;22;20010;-71
2022/09/28 11:17:39;;;;;;;4.38;0.88;;;21.80;59.40;;;;;;6273956;22;19999;-76
2022/09/28 11:20:24;;;;;;;2.33;0.70;;;21.90;58.90;;;;;;6272644;22;20050;-74
2022/09/28 11:22:59;;;;;;;2.15;0.63;;;21.90;57.70;;;;;;6274228;22;20415;-72
2022/09/28 11:25:28;;;;;;;4.03;0.40;;;22.00;58.00;;;;;;6273584;22;20426;-73
2022/09/28 11:27:54;;;;;;;2.35;1.10;;;22.10;58.90;;;;;;6273150;22;20012;-73
2022/09/28 11:30:37;;;;;;;5.68;0.95;;;22.10;59.90;;;;;;6273677;22;20034;-74
2022/09/28 11:33:10;;;;;;;4.28;0.70;;;22.10;58.40;;;;;;6273287;22;20067;-73
2022/09/28 11:35:42;;;;;;;3.05;0.50;;;22.10;57.00;;;;;;6273411;22;20003;-72
2022/09/28 11:38:30;;;;;;;0.95;0.55;;;22.20;55.70;;;;;;6273119;22;20015;-71
2022/09/28 11:41:24;;;;;;;1.83;0.65;;;22.20;54.20;;;;;;6273295;22;20023;-72
2022/09/28 11:44:12;;;;;;;1.50;0.65;;;22.20;54.70;;;;;;6273885;22;20319;-71
2022/09/28 11:46:41;;;;;;;0.57;0.43;;;22.30;55.20;;;;;;6272823;22;20071;-73
2022/09/28 11:49:34;;;;;;;1.90;1.02;;;22.30;54.60;;;;;;6273407;22;20011;-71
2022/09/28 11:52:26;;;;;;;2.53;0.50;;;22.30;54.10;;;;;;6274399;22;19999;-72
2022/09/28 11:55:09;;;;;;;1.88;0.70;;;22.30;53.50;;;;;;6271775;22;20446;-73
2022/09/28 11:57:41;;;;;;;2.20;1.42;;;22.40;53.00;;;;;;6274002;22;20030;-71
2022/09/28 12:00:15;;;;;;;0.68;0.32;;;22.50;51.50;;;;;;6273421;22;20042;-74
2022/09/28 12:02:50;;;;;;;1.97;0.40;;;22.60;51.60;;;;;;6272303;22;20088;-73
2022/09/28 12:05:29;;;;;;;0.57;0.57;;;22.60;51.40;;;;;;6273491;22;20007;-72
2022/09/28 12:08:26;;;;;;;1.25;0.40;;;22.70;51.50;;;;;;6271332;22;20019;-71
2022/09/28 12:11:01;;;;;;;6.72;1.05;;;22.70;52.50;;;;;;6273662;22;20000;-71
2022/09/28 12:13:34;;;;;;;3.05;0.80;;;22.80;52.70;;;;;;6274043;22;20000;-74
2022/09/28 12:16:03;;;;;;;1.80;0.63;;;22.80;52.30;;;;;;6272387;22;19995;-73
2022/09/28 12:18:43;;;;;;;1.13;0.80;;;22.80;51.20;;;;;;6273513;22;20021;-71
2022/09/28 12:21:18;;;;;;;1.83;0.80;;;22.90;51.80;;;;;;6273061;22;20022;-72
2022/09/28 12:23:47;;;;;;;2.92;0.73;;;22.90;52.30;;;;;;6273582;22;20003;-75
2022/09/28 12:26:42;;;;;;;3.22;0.63;;;22.90;52.50;;;;;;6272480;22;20029;-72
2022/09/28 12:29:36;;;;;;;5.40;0.90;;;23.00;52.80;;;;;;6271958;22;20018;-74
2022/09/28 12:32:10;;;;;;;3.90;0.80;;;23.00;52.30;;;;;;6272320;22;20008;-72
2022/09/28 12:34:37;;;;;;;1.67;0.95;;;23.10;52.90;;;;;;6272532;22;20002;-72
2022/09/28 12:37:41;;;;;;;1.13;0.40;;;23.10;53.10;;;;;;6273201;22;20042;-72
2022/09/28 12:40:31;;;;;;;0.85;0.40;;;23.10;52.90;;;;;;6273272;22;20003;-71
2022/09/28 12:43:05;;;;;;;1.90;0.70;;;23.10;51.80;;;;;;6272684;22;20075;-75
2022/09/28 12:46:16;;;;;;;0.40;0.40;;;23.10;51.90;;;;;;6272414;22;20007;-71
2022/09/28 12:48:58;;;;;;;0.65;0.57;;;23.20;51.90;;;;;;6119870;23;20029;-73
2022/09/28 12:51:46;;;;;;;0.68;0.50;;;23.20;51.40;;;;;;6267643;22;20007;-71
2022/09/28 12:54:40;;;;;;;1.10;0.52;;;23.20;51.60;;;;;;6272717;22;20042;-71
2022/09/28 12:57:41;;;;;;;5.10;1.50;;;23.20;50.40;;;;;;6272877;22;20316;-71
2022/09/28 13:00:14;;;;;;;2.53;0.90;;;23.20;50.60;;;;;;6271905;22;20514;-75
2022/09/28 13:03:19;;;;;;;1.48;0.50;;;23.20;51.20;;;;;;6273240;22;20003;-71
2022/09/28 13:06:33;;;;;;;5.78;1.42;;;23.20;51.70;;;;;;6201550;22;20026;-72
2022/09/28 13:09:15;;;;;;;1.35;0.50;;;23.30;51.40;;;;;;6239446;22;20352;-73
2022/09/28 13:12:03;;;;;;;1.83;0.47;;;23.30;51.20;;;;;;6273002;22;19999;-72
2022/09/28 13:14:57;;;;;;;0.95;0.50;;;23.30;51.30;;;;;;6273088;22;20339;-74
2022/09/28 13:17:42;;;;;;;0.93;0.50;;;23.30;51.40;;;;;;6271429;22;20057;-72
2022/09/28 13:20:08;;;;;;;;;;;23.20;50.60;;;;;;6273216;22;20271;-72
2022/09/28 13:22:53;;;;;;;3.47;1.30;;;23.30;50.60;;;;;;6272554;22;19922;-72
2022/09/28 13:25:24;;;;;;;0.45;0.35;;;23.30;50.40;;;;;;6271642;22;20071;-71
2022/09/28 13:28:03;;;;;;;0.40;0.40;;;23.30;50.00;;;;;;6272801;22;20003;-72
2022/09/28 13:30:32;;;;;;;1.20;0.82;;;23.20;49.80;;;;;;6271240;22;20045;-74
2022/09/28 13:33:02;;;;;;;0.95;0.30;;;23.30;50.10;;;;;;6273010;22;20071;-72
2022/09/28 13:35:29;;;;;;;1.95;1.13;;;23.30;50.70;;;;;;6272621;22;20490;-76
2022/09/28 13:38:16;;;;;;;4.75;0.50;;;23.30;51.20;;;;;;6272028;22;20029;-74
2022/09/28 13:41:04;;;;;;;1.25;0.47;;;23.30;51.20;;;;;;6272690;22;20007;-76
2022/09/28 13:43:49;;;;;;;1.70;0.60;;;23.30;50.90;;;;;;6271632;22;20419;-74
2022/09/28 13:46:37;;;;;;;2.67;0.40;;;23.30;50.90;;;;;;6272363;22;20000;-72
2022/09/28 13:49:31;;;;;;;1.10;0.40;;;23.40;50.60;;;;;;6272610;22;20043;-72
2022/09/28 13:52:38;;;;;;;1.80;0.38;;;23.40;49.90;;;;;;6271927;22;20082;-73
2022/09/28 13:55:22;;;;;;;6.40;0.90;;;23.30;49.60;;;;;;6119166;23;20006;-73
2022/09/28 13:58:22;;;;;;;0.75;0.60;;;23.30;49.40;;;;;;6265732;22;20085;-71
2022/09/28 14:01:13;;;;;;;0.70;0.50;;;23.30;48.90;;;;;;6270697;22;20007;-73
2022/09/28 14:04:14;;;;;;;1.30;0.70;;;23.30;48.90;;;;;;6271872;22;20016;-71
2022/09/28 14:07:02;;;;;;;2.28;0.50;;;23.20;48.80;;;;;;6137905;22;20010;-74
2022/09/28 14:09:42;;;;;;;2.90;0.80;;;23.20;48.90;;;;;;6193643;22;20014;-73
2022/09/28 14:12:33;;;;;;;1.30;0.60;;;23.20;49.30;;;;;;6271952;22;20075;-73
2022/09/28 14:15:01;;;;;;;2.53;0.80;;;23.20;49.00;;;;;;6272588;22;19999;-74
2022/09/28 14:17:27;;;;;;;1.70;0.60;;;23.20;48.30;;;;;;6268861;22;20015;-73
2022/09/28 14:20:07;;;;;;;2.15;1.10;;;23.20;48.30;;;;;;6271373;22;20003;-70
2022/09/28 14:22:56;;;;;;;4.65;0.60;;;23.20;49.20;;;;;;6270918;22;20003;-70
2022/09/28 14:26:06;;;;;;;2.63;1.10;;;23.20;49.90;;;;;;6270513;22;20007;-71
2022/09/28 14:28:41;;;;;;;11.30;7.43;;;23.20;50.80;;;;;;6199239;22;20390;-71
2022/09/28 14:31:16;;;;;;;1.95;1.52;;;23.20;52.00;;;;;;6272030;22;20012;-72
2022/09/28 14:33:55;;;;;;;5.00;1.65;;;23.20;51.00;;;;;;6274434;22;20000;-70
2022/09/28 14:42:20;;;;;;;6.55;1.08;;;23.20;53.00;;;;;;6273439;22;20435;-72
2022/09/28 14:45:02;;;;;;;2.65;1.05;;;23.20;52.80;;;;;;6271650;22;20004;-71
2022/09/28 14:47:44;;;;;;;6.05;1.10;;;23.20;52.80;;;;;;6271255;22;20023;-71
2022/09/28 14:50:26;;;;;;;5.18;2.17;;;23.20;53.80;;;;;;6272366;22;20004;-72
2022/09/28 14:53:23;;;;;;;5.70;2.42;;;23.20;55.30;;;;;;6271061;22;20048;-72
2022/09/28 14:55:56;;;;;;;6.57;3.45;;;23.20;56.90;;;;;;6240782;22;20081;-71
2022/09/28 14:58:28;;;;;;;6.97;2.17;;;23.20;57.60;;;;;;6271967;22;20134;-72
2022/09/28 15:01:04;;;;;;;8.88;2.95;;;23.20;58.00;;;;;;6271225;22;20004;-70
2022/09/28 15:03:33;;;;;;;9.75;2.25;;;23.20;58.20;;;;;;6271848;22;20020;-70
2022/09/28 15:06:00;;;;;;;4.30;2.03;;;23.10;58.50;;;;;;6270703;22;20002;-71
2022/09/28 15:08:44;;;;;;;6.75;2.03;;;23.10;58.60;;;;;;6271459;22;20012;-70
2022/09/28 15:11:23;;;;;;;4.72;2.08;;;23.10;58.80;;;;;;6272794;22;20023;-69
2022/09/28 15:13:54;;;;;;;8.57;2.05;;;23.10;59.10;;;;;;6271270;22;20042;-70
2022/09/28 15:16:23;;;;;;;7.03;2.05;;;23.00;59.30;;;;;;6271282;22;20092;-72
2022/09/28 15:18:59;;;;;;;5.03;2.05;;;22.90;59.40;;;;;;6271021;22;19995;-73
2022/09/28 15:21:38;;;;;;;6.57;1.55;;;22.90;59.70;;;;;;6273229;22;20105;-70
2022/09/28 15:24:33;;;;;;;13.20;5.57;;;22.90;59.90;;;;;;6273405;22;20007;-72
2022/09/28 15:27:12;;;;;;;;;;;22.80;60.30;;;;;;6255079;22;20048;-71
2022/09/28 15:29:39;;;;;;;3.63;2.35;;;22.80;60.20;;;;;;6265734;22;19903;-68
2022/09/28 15:32:21;;;;;;;7.07;2.78;;;22.80;60.20;;;;;;6269910;22;20053;-66
2022/09/28 15:34:51;;;;;;;1.70;1.40;;;22.70;60.10;;;;;;6271818;22;20061;-66
2022/09/28 15:37:34;;;;;;;9.27;1.35;;;22.60;60.10;;;;;;6272854;22;20000;-66
2022/09/28 15:40:01;;;;;;;3.05;1.08;;;22.60;60.30;;;;;;6271207;22;20000;-70
2022/09/28 15:42:35;;;;;;;2.20;1.17;;;22.50;60.40;;;;;;6272511;22;20026;-69
2022/09/28 15:45:21;;;;;;;3.60;1.83;;;22.50;60.60;;;;;;6272308;22;20003;-70
2022/09/28 15:47:47;;;;;;;4.88;1.50;;;22.50;60.70;;;;;;6272492;22;20061;-67
2022/09/28 15:50:26;;;;;;;3.10;2.38;;;22.40;60.80;;;;;;6271924;22;20494;-68
2022/09/28 15:52:57;;;;;;;14.18;9.57;;;22.40;61.10;;;;;;6270952;22;20327;-69
2022/09/28 15:55:42;;;;;;;9.88;7.20;;;22.40;61.40;;;;;;6272808;22;20034;-71
2022/09/28 15:58:14;;;;;;;;;;;22.30;61.70;;;;;;6273121;22;20099;-72
2022/09/28 16:00:41;;;;;;;4.47;2.08;;;22.20;61.90;;;;;;6271571;22;20350;-69
2022/09/28 16:03:08;;;;;;;3.58;1.35;;;22.20;61.90;;;;;;6272341;22;20004;-72
2022/09/28 16:05:38;;;;;;;4.57;1.13;;;22.20;61.90;;;;;;6271958;22;21036;-75
2022/09/28 16:08:05;;;;;;;8.73;1.70;;;22.10;61.90;;;;;;6272517;22;20097;-67
2022/09/28 16:10:33;;;;;;;2.10;0.90;;;22.10;62.00;;;;;;6270602;22;20027;-74
2022/09/28 16:13:14;;;;;;;2.83;1.08;;;22.00;61.70;;;;;;6272386;22;20001;-70
2022/09/28 16:15:41;;;;;;;4.55;0.70;;;22.00;61.60;;;;;;6270432;22;20000;-70
2022/09/28 16:18:16;;;;;;;4.95;1.10;;;21.90;61.40;;;;;;6271282;22;19995;-72
2022/09/28 16:20:45;;;;;;;1.50;0.82;;;21.80;61.40;;;;;;6272300;22;20053;-70
2022/09/28 16:23:32;;;;;;;1.50;0.73;;;21.80;61.40;;;;;;6270529;22;20008;-68
2022/09/28 16:26:05;;;;;;;2.15;0.82;;;21.80;61.60;;;;;;6270443;22;20431;-69
2022/09/28 16:28:37;;;;;;;5.43;1.48;;;21.70;61.70;;;;;;6270916;22;20015;-67
2022/09/28 16:31:27;;;;;;;9.20;5.22;;;21.70;61.80;;;;;;6268633;22;20085;-67
2022/09/28 16:34:00;;;;;;;50.25;21.77;;;21.60;62.50;;;;;;6272122;22;20012;-67
2022/09/28 16:36:37;;;;;;;31.85;16.88;;;21.60;63.30;;;;;;6270734;22;20000;-69
2022/09/28 16:39:04;;;;;;;8.75;7.07;;;21.60;63.80;;;;;;6272557;22;20003;-73
2022/09/28 16:41:31;;;;;;;3.47;1.70;;;21.60;63.40;;;;;;6271558;22;20014;-68
2022/09/28 16:44:00;;;;;;;3.22;1.42;;;21.50;63.10;;;;;;6272005;22;20000;-71
2022/09/28 16:46:37;;;;;;;4.15;1.80;;;21.50;62.90;;;;;;6272182;22;20059;-70
2022/09/28 16:49:06;;;;;;;2.25;1.23;;;21.40;63.00;;;;;;6243996;22;20012;-71
2022/09/28 16:51:32;;;;;;;2.33;0.82;;;21.40;63.10;;;;;;6270904;22;19995;-67
2022/09/28 16:57:15;;;;;;;;;;;21.30;63.60;;;;;;6207822;22;20514;-73
2022/09/28 16:59:42;;;;;;;1.75;1.50;;;21.20;63.70;;;;;;6272825;22;20342;-74
2022/09/28 17:02:24;;;;;;;6.80;5.05;;;21.20;63.90;;;;;;6271421;22;19996;-70
2022/09/28 17:04:50;;;;;;;16.70;4.85;;;21.20;64.10;;;;;;6272469;22;20084;-76
2022/09/28 17:07:19;;;;;;;5.28;2.30;;;21.20;64.40;;;;;;6271643;22;20003;-72
2022/09/28 17:09:45;;;;;;;6.13;2.00;;;21.10;65.70;;;;;;6272708;22;20004;-73
2022/09/28 17:12:23;;;;;;;2.80;2.00;;;21.10;66.30;;;;;;6272206;22;20064;-73
2022/09/28 17:14:49;;;;;;;15.05;2.47;;;21.10;66.70;;;;;;6271986;22;20414;-69
2022/09/28 17:17:16;;;;;;;7.30;4.55;;;21.10;66.60;;;;;;6272657;22;20117;-71
2022/09/28 17:19:42;;;;;;;15.35;12.20;;;21.10;66.30;;;;;;6268819;22;19995;-74
2022/09/28 17:22:09;;;;;;;21.67;18.25;;;21.10;66.30;;;;;;6271959;22;20601;-71
2022/09/28 17:24:36;;;;;;;25.60;17.00;;;21.10;66.50;;;;;;6272308;22;20000;-70
2022/09/28 17:27:04;;;;;;;21.77;11.30;;;21.10;66.50;;;;;;6271429;22;20004;-70
2022/09/28 17:29:31;;;;;;;10.77;7.03;;;21.00;66.30;;;;;;6272047;22;20926;-70
2022/09/28 17:31:58;;;;;;;6.05;4.15;;;21.00;66.10;;;;;;6270807;22;20422;-71
2022/09/28 17:34:24;;;;;;;7.35;3.63;;;21.00;65.70;;;;;;6271354;22;20053;-71
2022/09/28 17:36:51;;;;;;;9.85;5.85;;;21.00;66.00;;;;;;6270984;22;20004;-75
2022/09/28 17:39:19;;;;;;;15.82;9.65;;;21.00;66.10;;;;;;6271368;22;19995;-72
2022/09/28 17:41:45;;;;;;;16.48;12.18;;;21.00;66.10;;;;;;6270510;22;20053;-73
2022/09/28 17:44:15;;;;;;;16.58;12.68;;;20.90;66.20;;;;;;6272086;22;20011;-70
2022/09/28 17:46:48;;;;;;;21.45;15.02;;;20.90;66.20;;;;;;6271523;22;20408;-71
2022/09/28 17:49:15;;;;;;;12.57;9.82;;;20.90;66.00;;;;;;6270877;22;20003;-70
2022/09/28 17:51:41;;;;;;;5.80;5.20;;;20.90;65.90;;;;;;6271964;22;20000;-74
2022/09/28 17:54:08;;;;;;;3.90;3.13;;;20.90;65.80;;;;;;6270335;22;20447;-68
2022/09/28 17:56:35;;;;;;;3.35;3.05;;;20.80;65.70;;;;;;6272245;22;19995;-69
2022/09/28 17:59:09;;;;;;;3.22;2.10;;;20.80;65.70;;;;;;6270693;22;20075;-69
2022/09/28 18:01:38;;;;;;;7.18;2.55;;;20.80;65.80;;;;;;6271486;22;19992;-69
2022/09/28 18:04:06;;;;;;;5.65;2.22;;;20.80;66.00;;;;;;6271772;22;20098;-70
2022/09/28 18:06:33;;;;;;;4.68;3.00;;;20.80;66.10;;;;;;6270636;22;20010;-70
2022/09/28 18:09:03;;;;;;;2.90;2.25;;;20.80;66.20;;;;;;6271457;22;20017;-69
2022/09/28 18:11:31;;;;;;;2.83;2.22;;;20.80;66.50;;;;;;6269969;22;20688;-69
2022/09/28 18:13:58;;;;;;;2.95;2.00;;;20.70;66.60;;;;;;6271758;22;20004;-70
2022/09/28 18:16:26;;;;;;;6.00;1.40;;;20.70;66.90;;;;;;6270356;22;20493;-70
2022/09/28 18:18:53;;;;;;;4.10;1.95;;;20.70;67.00;;;;;;6271680;22;19999;-70
2022/09/28 18:21:19;;;;;;;4.60;2.00;;;20.70;67.10;;;;;;6271764;22;19999;-72
2022/09/28 18:23:46;;;;;;;1.90;1.67;;;20.70;67.30;;;;;;6271334;22;20002;-69
2022/09/28 18:26:14;;;;;;;5.95;2.35;;;20.60;67.30;;;;;;6272688;22;20002;-70
2022/09/28 18:28:41;;;;;;;3.72;1.90;;;20.60;67.30;;;;;;6270685;22;20012;-71
2022/09/28 18:31:09;;;;;;;3.05;1.70;;;20.60;67.30;;;;;;6271879;22;20000;-70
2022/09/28 18:33:36;;;;;;;5.38;2.08;;;20.60;67.50;;;;;;6270495;22;20064;-71
2022/09/28 18:36:04;;;;;;;5.90;1.95;;;20.60;67.60;;;;;;6272275;22;20019;-75
2022/09/28 18:38:33;;;;;;;5.30;1.63;;;20.50;67.80;;;;;;6271027;22;20007;-70
2022/09/28 18:41:09;;;;;;;2.25;1.55;;;20.50;67.90;;;;;;6269704;22;20000;-77
2022/09/28 18:43:36;;;;;;;2.92;1.65;;;20.50;68.10;;;;;;6270496;22;20078;-75
2022/09/28 18:46:10;;;;;;;3.75;2.08;;;20.50;68.30;;;;;;6269266;22;20003;-70
2022/09/28 18:48:40;;;;;;;4.22;1.55;;;20.50;68.40;;;;;;6270413;22;20015;-70
2022/09/28 18:51:13;;;;;;;9.73;2.17;;;20.50;68.50;;;;;;6268619;22;20010;-73
2022/09/28 18:53:40;;;;;;;8.13;2.38;;;20.50;68.60;;;;;;6270798;22;20471;-70
2022/09/28 18:56:08;;;;;;;5.55;2.15;;;20.50;68.80;;;;;;6270155;22;20041;-71
2022/09/28 18:58:36;;;;;;;3.72;1.65;;;20.50;69.00;;;;;;6269869;22;20050;-78
2022/09/28 19:01:11;;;;;;;3.90;1.77;;;20.40;69.10;;;;;;6270432;22;20003;-72
2022/09/28 19:03:38;;;;;;;3.30;1.73;;;20.40;69.20;;;;;;6269544;22;20012;-72
2022/09/28 19:06:12;;;;;;;6.30;2.17;;;20.40;69.60;;;;;;6271225;22;19999;-73
2022/09/28 19:08:41;;;;;;;4.53;2.13;;;20.40;70.00;;;;;;6268749;22;20008;-70
2022/09/28 19:11:11;;;;;;;9.23;1.60;;;20.40;70.10;;;;;;6243258;22;20004;-76
2022/09/28 19:13:38;;;;;;;4.97;1.63;;;20.40;70.60;;;;;;6269996;22;20000;-70
2022/09/28 19:16:16;;;;;;;4.55;2.10;;;20.40;70.70;;;;;;6270951;22;20004;-76
2022/09/28 19:18:43;;;;;;;3.08;1.95;;;20.40;70.70;;;;;;6245529;22;20008;-73
2022/09/28 19:21:12;;;;;;;9.63;3.75;;;20.40;70.80;;;;;;6270423;22;20000;-70
2022/09/28 19:23:39;;;;;;;9.75;4.53;;;20.30;71.00;;;;;;6272345;22;20045;-70
2022/09/28 19:26:08;;;;;;;6.35;4.47;;;20.40;71.20;;;;;;6271699;22;20003;-73
2022/09/28 19:28:35;;;;;;;11.68;7.00;;;20.30;71.50;;;;;;6272048;22;20008;-69
2022/09/28 19:31:04;;;;;;;12.45;9.88;;;20.30;71.50;;;;;;6272147;22;20424;-75
2022/09/28 19:33:30;;;;;;;18.10;11.60;;;20.40;71.50;;;;;;6272358;22;20438;-71